Time;durP1;ratioP1;P1;durP2;ratioP2;P2;SDS_P1;SDS_P2;PMS_P1;PMS_P2;Temp;Humidity;BMP_temperature;BMP_pressure;BME280_temperature;BME280_humidity;BME280_pressure;Samples;Min_cycle;Max_cycle;Signal;HPM_P1;HPM_P2
2020/12/22 00:01:57;;;;;;;47.05;18.92;;;;;;;;;;5075658;28;20012;-71
2020/12/22 00:04:24;;;;;;;45.05;20.73;;;;;;;;;;5075875;28;20021;-72
2020/12/22 00:06:50;;;;;;;41.05;18.77;;;;;;;;;;5074598;28;20036;-71
2020/12/22 00:09:15;;;;;;;46.28;20.83;;;;;;;;;;5074499;28;20427;-72
2020/12/22 00:11:40;;;;;;;41.40;18.30;;;;;;;;;;5075491;28;20461;-72
2020/12/22 00:14:06;;;;;;;40.28;17.55;;;;;;;;;;5075419;28;20035;-71
2020/12/22 00:16:32;;;;;;;49.22;20.50;;;;;;;;;;5073829;28;20021;-73
2020/12/22 00:18:58;;;;;;;52.10;20.30;;;;;;;;;;5074370;28;20071;-71
2020/12/22 00:21:23;;;;;;;43.22;18.98;;;;;;;;;;5074228;28;20037;-72
2020/12/22 00:23:48;;;;;;;43.38;20.52;;;;;;;;;;5074205;28;20019;-72
2020/12/22 00:26:17;;;;;;;44.38;20.35;;;;;;;;;;5075062;28;20025;-72
2020/12/22 00:28:42;;;;;;;43.60;20.63;;;;;;;;;;5075270;28;20070;-71
2020/12/22 00:31:08;;;;;;;45.47;21.27;;;;;;;;;;5073952;28;20048;-71
2020/12/22 00:33:33;;;;;;;47.10;21.58;;;;;;;;;;5074173;28;20461;-73
2020/12/22 00:35:58;;;;;;;44.17;19.77;;;;;;;;;;5075162;28;20487;-72
2020/12/22 00:38:24;;;;;;;42.05;18.42;;;;;;;;;;5075357;28;20090;-72
2020/12/22 00:40:49;;;;;;;45.88;20.88;;;;;;;;;;5074954;28;20074;-72
2020/12/22 00:43:15;;;;;;;48.38;20.55;;;;;;;;;;5074405;28;20381;-72
2020/12/22 00:45:40;;;;;;;45.08;20.27;;;;;;;;;;5073337;28;20388;-72
2020/12/22 00:48:06;;;;;;;50.55;21.10;;;;;;;;;;5073584;28;20538;-71
2020/12/22 00:50:31;;;;;;;47.38;21.08;;;;;;;;;;5075150;28;20024;-72
2020/12/22 00:52:56;;;;;;;45.72;19.40;;;;;;;;;;5073564;28;20081;-72
2020/12/22 00:55:22;;;;;;;46.75;20.33;;;;;;;;;;5075007;28;20024;-73
2020/12/22 00:57:50;;;;;;;47.83;21.58;;;;;;;;;;5056914;28;20096;-72
2020/12/22 01:00:16;;;;;;;48.00;22.27;;;;;;;;;;5073547;28;20048;-72
2020/12/22 01:02:42;;;;;;;48.28;22.35;;;;;;;;;;5074380;28;20095;-71
2020/12/22 01:05:07;;;;;;;47.35;21.05;;;;;;;;;;5074626;28;20103;-71
2020/12/22 01:07:33;;;;;;;46.42;19.75;;;;;;;;;;5074798;28;20024;-73
2020/12/22 01:09:58;;;;;;;45.00;19.25;;;;;;;;;;5073085;28;20020;-71
2020/12/22 01:12:24;;;;;;;49.10;20.67;;;;;;;;;;5056686;28;20099;-72
2020/12/22 01:14:49;;;;;;;46.42;20.55;;;;;;;;;;5074464;28;20107;-72
2020/12/22 01:17:15;;;;;;;44.92;22.42;;;;;;;;;;5055914;28;20115;-72
2020/12/22 01:19:40;;;;;;;45.88;19.30;;;;;;;;;;5074552;28;20527;-73
2020/12/22 01:22:06;;;;;;;46.47;19.27;;;;;;;;;;5074226;28;20021;-71
2020/12/22 01:24:31;;;;;;;51.50;24.27;;;;;;;;;;5074561;28;20013;-73
2020/12/22 01:26:57;;;;;;;47.97;21.13;;;;;;;;;;5056219;28;20381;-71
2020/12/22 01:29:22;;;;;;;45.75;21.55;;;;;;;;;;5074502;28;20039;-72
2020/12/22 01:31:48;;;;;;;46.15;20.40;;;;;;;;;;5091392;28;20399;-72
2020/12/22 01:34:13;;;;;;;51.58;24.02;;;;;;;;;;5076147;28;20017;-72
2020/12/22 01:36:39;;;;;;;46.88;21.33;;;;;;;;;;5076649;28;20047;-73
2020/12/22 01:39:04;;;;;;;44.75;21.52;;;;;;;;;;5094424;28;20008;-73
2020/12/22 01:41:34;;;;;;;50.47;22.65;;;;;;;;;;5076212;28;20460;-72
2020/12/22 01:44:04;;;;;;;52.55;24.48;;;;;;;;;;5059345;28;20035;-71
2020/12/22 01:46:29;;;;;;;;;;;;;;;;;;5094197;28;20469;-72
2020/12/22 01:48:54;;;;;;;47.47;21.73;;;;;;;;;;5075971;28;19911;-71
2020/12/22 01:51:20;;;;;;;56.50;23.70;;;;;;;;;;5075994;28;20291;-73
2020/12/22 01:53:45;;;;;;;50.40;22.50;;;;;;;;;;5076134;28;20023;-74
2020/12/22 01:56:11;;;;;;;47.03;19.85;;;;;;;;;;5093743;28;20051;-74
2020/12/22 01:58:37;;;;;;;47.50;20.00;;;;;;;;;;5075890;28;20472;-74
2020/12/22 02:01:02;;;;;;;47.95;20.65;;;;;;;;;;5075683;28;20023;-72
2020/12/22 02:03:29;;;;;;;45.00;19.42;;;;;;;;;;5075872;28;20346;-72
2020/12/22 02:05:54;;;;;;;47.80;21.73;;;;;;;;;;5093860;28;20099;-72
2020/12/22 02:08:19;;;;;;;52.63;23.75;;;;;;;;;;5093591;28;20162;-73
2020/12/22 02:10:49;;;;;;;46.78;22.55;;;;;;;;;;5093589;28;20540;-71
2020/12/22 02:13:14;;;;;;;;;;;;;;;;;;5076162;28;20478;-72
2020/12/22 02:15:39;;;;;;;50.58;20.40;;;;;;;;;;5092207;28;19990;-74
2020/12/22 02:18:05;;;;;;;61.88;22.95;;;;;;;;;;5093249;28;20051;-72
2020/12/22 02:20:30;;;;;;;53.00;21.92;;;;;;;;;;5075641;28;20465;-73
2020/12/22 02:22:56;;;;;;;43.80;19.23;;;;;;;;;;5093592;28;20020;-71
2020/12/22 02:25:21;;;;;;;47.85;20.40;;;;;;;;;;5093428;28;20086;-72
2020/12/22 02:27:47;;;;;;;49.13;20.42;;;;;;;;;;5093396;28;20012;-73
2020/12/22 02:30:12;;;;;;;56.70;21.13;;;;;;;;;;5092756;28;20334;-72
2020/12/22 02:32:38;;;;;;;60.95;22.73;;;;;;;;;;5093371;28;20025;-74
2020/12/22 02:35:04;;;;;;;54.03;21.15;;;;;;;;;;5093257;28;20054;-72
2020/12/22 02:37:29;;;;;;;48.72;21.02;;;;;;;;;;5075295;28;20384;-73
2020/12/22 02:39:55;;;;;;;45.75;18.60;;;;;;;;;;5074959;28;20112;-73
2020/12/22 02:42:20;;;;;;;49.30;20.77;;;;;;;;;;5075505;28;20039;-73
2020/12/22 02:44:46;;;;;;;51.25;21.08;;;;;;;;;;5093077;28;20456;-72
2020/12/22 02:47:13;;;;;;;52.90;21.60;;;;;;;;;;5092377;28;20016;-72
2020/12/22 02:49:39;;;;;;;53.58;20.52;;;;;;;;;;5093035;28;20480;-74
2020/12/22 02:52:05;;;;;;;47.47;20.33;;;;;;;;;;5092665;28;20020;-72
2020/12/22 02:54:30;;;;;;;50.40;22.67;;;;;;;;;;5093144;28;20016;-73
2020/12/22 02:56:56;;;;;;;50.80;23.90;;;;;;;;;;5074967;28;20016;-72
2020/12/22 02:59:21;;;;;;;51.40;21.33;;;;;;;;;;5074714;28;20028;-73
2020/12/22 03:01:47;;;;;;;54.50;23.63;;;;;;;;;;5093207;28;20067;-72
2020/12/22 03:04:12;;;;;;;51.85;22.52;;;;;;;;;;5092580;28;20020;-72
2020/12/22 03:06:38;;;;;;;51.35;23.00;;;;;;;;;;5074891;28;20038;-73
2020/12/22 03:09:04;;;;;;;53.70;21.30;;;;;;;;;;5092773;28;20012;-72
2020/12/22 03:11:30;;;;;;;47.45;20.48;;;;;;;;;;5092542;28;20035;-73
2020/12/22 03:13:55;;;;;;;53.90;20.75;;;;;;;;;;5092954;28;20103;-73
2020/12/22 03:16:21;;;;;;;48.75;19.83;;;;;;;;;;5091790;28;20074;-73
2020/12/22 03:18:46;;;;;;;52.45;22.02;;;;;;;;;;5074714;28;20012;-73
2020/12/22 03:21:13;;;;;;;53.30;21.40;;;;;;;;;;5074610;28;20012;-72
2020/12/22 03:23:38;;;;;;;46.30;21.35;;;;;;;;;;5092689;28;20028;-74
2020/12/22 03:26:03;;;;;;;53.72;22.33;;;;;;;;;;5092043;28;20043;-72
2020/12/22 03:28:29;;;;;;;45.92;20.38;;;;;;;;;;5092670;28;20024;-73
2020/12/22 03:30:54;;;;;;;52.13;20.70;;;;;;;;;;5092205;28;20052;-72
2020/12/22 03:33:20;;;;;;;52.92;22.75;;;;;;;;;;5074335;28;20013;-72
2020/12/22 03:35:45;;;;;;;50.90;21.80;;;;;;;;;;5092522;28;20012;-73
2020/12/22 03:38:11;;;;;;;50.80;23.00;;;;;;;;;;5092186;28;20016;-72
2020/12/22 03:40:36;;;;;;;54.03;22.65;;;;;;;;;;5092179;28;20044;-74
2020/12/22 03:43:02;;;;;;;53.40;22.23;;;;;;;;;;5057554;28;20019;-72
2020/12/22 03:45:27;;;;;;;50.22;20.38;;;;;;;;;;5091737;28;20016;-72
2020/12/22 03:47:53;;;;;;;51.88;22.23;;;;;;;;;;5074135;28;20051;-72
2020/12/22 03:50:18;;;;;;;51.20;23.45;;;;;;;;;;5073966;28;20086;-73
2020/12/22 03:52:44;;;;;;;49.47;22.30;;;;;;;;;;5074376;28;20024;-73
2020/12/22 03:55:10;;;;;;;46.17;20.92;;;;;;;;;;5074201;28;20095;-74
2020/12/22 03:57:35;;;;;;;50.83;22.42;;;;;;;;;;5092171;28;20582;-74
2020/12/22 04:00:01;;;;;;;50.60;22.60;;;;;;;;;;5073867;28;20016;-72
2020/12/22 04:02:26;;;;;;;48.85;21.35;;;;;;;;;;5074152;28;20430;-72
2020/12/22 04:04:51;;;;;;;52.03;21.98;;;;;;;;;;5092016;28;20427;-72
2020/12/22 04:07:17;;;;;;;55.40;22.75;;;;;;;;;;5074098;28;20015;-72
2020/12/22 04:09:42;;;;;;;60.75;25.67;;;;;;;;;;5092008;28;20534;-72
2020/12/22 04:12:08;;;;;;;46.55;19.80;;;;;;;;;;5091672;28;20021;-73
2020/12/22 04:14:33;;;;;;;47.55;20.42;;;;;;;;;;5074026;28;20020;-74
2020/12/22 04:16:59;;;;;;;51.83;20.83;;;;;;;;;;5073240;28;20031;-72
2020/12/22 04:19:24;;;;;;;52.00;21.65;;;;;;;;;;5091960;28;20017;-73
2020/12/22 04:21:54;;;;;;;51.88;20.60;;;;;;;;;;5078603;28;20023;-72
2020/12/22 04:24:21;;;;;;;49.40;23.33;;;;;;;;;;5094017;28;20141;-72
2020/12/22 04:26:47;;;;;;;44.97;20.27;;;;;;;;;;5091842;28;20044;-71
2020/12/22 04:29:12;;;;;;;50.35;21.63;;;;;;;;;;5091844;28;20030;-72
2020/12/22 04:31:42;;;;;;;51.63;21.75;;;;;;;;;;5091804;28;20052;-74
2020/12/22 04:34:14;;;;;;;46.00;22.20;;;;;;;;;;5079938;28;20380;-72
2020/12/22 04:36:41;;;;;;;51.60;23.30;;;;;;;;;;5096712;28;20016;-73
2020/12/22 04:39:06;;;;;;;59.42;21.45;;;;;;;;;;5094961;28;20027;-72
2020/12/22 04:41:32;;;;;;;48.55;21.27;;;;;;;;;;5095640;28;20056;-73
2020/12/22 04:43:58;;;;;;;48.30;21.20;;;;;;;;;;5060442;28;20058;-70
2020/12/22 04:46:23;;;;;;;50.00;23.63;;;;;;;;;;5094816;28;20012;-72
2020/12/22 04:48:51;;;;;;;47.00;21.83;;;;;;;;;;5095465;28;20030;-72
2020/12/22 04:51:17;;;;;;;47.75;20.50;;;;;;;;;;5095361;28;20016;-73
2020/12/22 04:53:43;;;;;;;49.83;20.25;;;;;;;;;;5077099;28;20077;-70
2020/12/22 04:56:09;;;;;;;49.20;19.33;;;;;;;;;;5077047;28;20120;-74
2020/12/22 04:58:35;;;;;;;41.47;18.10;;;;;;;;;;5095125;28;20182;-74
2020/12/22 05:01:01;;;;;;;50.97;20.15;;;;;;;;;;5060171;28;20020;-71
2020/12/22 05:03:27;;;;;;;46.72;20.85;;;;;;;;;;5095219;28;20016;-71
2020/12/22 05:05:53;;;;;;;43.85;18.80;;;;;;;;;;5076744;28;20512;-72
2020/12/22 05:08:19;;;;;;;47.92;19.60;;;;;;;;;;5094624;28;20468;-72
2020/12/22 05:10:45;;;;;;;45.40;22.95;;;;;;;;;;5059906;28;20085;-72
2020/12/22 05:13:14;;;;;;;47.92;18.85;;;;;;;;;;5095627;28;20487;-72
2020/12/22 05:15:49;;;;;;;44.33;18.23;;;;;;;;;;5077420;28;20052;-74
2020/12/22 05:18:15;;;;;;;42.35;17.70;;;;;;;;;;5076464;28;20496;-72
2020/12/22 05:20:41;;;;;;;43.65;18.48;;;;;;;;;;5076767;28;20051;-73
2020/12/22 05:23:08;;;;;;;44.15;18.85;;;;;;;;;;5094494;28;20012;-72
2020/12/22 05:25:35;;;;;;;48.15;21.05;;;;;;;;;;5059895;28;20047;-74
2020/12/22 05:28:01;;;;;;;38.47;18.25;;;;;;;;;;5094023;28;20099;-72
2020/12/22 05:30:26;;;;;;;44.15;20.00;;;;;;;;;;5076158;28;20052;-73
2020/12/22 05:32:52;;;;;;;47.33;19.88;;;;;;;;;;5059479;28;20019;-73
2020/12/22 05:35:18;;;;;;;46.30;18.35;;;;;;;;;;5059594;28;20051;-72
2020/12/22 05:37:45;;;;;;;48.20;20.50;;;;;;;;;;5094352;28;20027;-72
2020/12/22 05:40:11;;;;;;;49.95;19.77;;;;;;;;;;5076035;28;20020;-73
2020/12/22 05:42:36;;;;;;;46.83;20.73;;;;;;;;;;5076424;28;20427;-74
2020/12/22 05:45:04;;;;;;;45.72;21.65;;;;;;;;;;5094500;28;20016;-71
2020/12/22 05:47:30;;;;;;;46.53;19.55;;;;;;;;;;5093723;28;20024;-73
2020/12/22 05:49:56;;;;;;;48.38;21.33;;;;;;;;;;5094036;28;20030;-74
2020/12/22 05:52:23;;;;;;;43.28;17.63;;;;;;;;;;5093928;28;20545;-73
2020/12/22 05:54:50;;;;;;;48.25;20.42;;;;;;;;;;5076336;28;20016;-74
2020/12/22 05:57:19;;;;;;;40.15;17.73;;;;;;;;;;5076224;28;20417;-74
2020/12/22 05:59:44;;;;;;;44.15;16.17;;;;;;;;;;5076019;28;20021;-74
2020/12/22 06:02:22;;;;;;;44.08;19.63;;;;;;;;;;5093818;28;20369;-72
2020/12/22 06:04:47;;;;;;;40.08;16.98;;;;;;;;;;5093766;28;20027;-72
2020/12/22 06:07:13;;;;;;;44.70;20.30;;;;;;;;;;5093846;28;20012;-72
2020/12/22 06:09:39;;;;;;;42.00;17.35;;;;;;;;;;5093950;28;20065;-74
2020/12/22 06:12:06;;;;;;;44.55;18.50;;;;;;;;;;5093603;28;20067;-72
2020/12/22 06:14:32;;;;;;;47.22;18.55;;;;;;;;;;5076013;28;20024;-73
2020/12/22 06:17:03;;;;;;;40.92;17.73;;;;;;;;;;5092798;28;20020;-73
2020/12/22 06:19:30;;;;;;;40.35;17.55;;;;;;;;;;5093448;28;20020;-73
2020/12/22 06:21:57;;;;;;;39.92;17.58;;;;;;;;;;5075313;28;20541;-73
2020/12/22 06:24:23;;;;;;;43.42;17.23;;;;;;;;;;5093462;28;20057;-72
2020/12/22 06:26:58;;;;;;;40.47;18.20;;;;;;;;;;5075422;28;20484;-72
2020/12/22 06:29:25;;;;;;;38.13;16.75;;;;;;;;;;5093309;28;20077;-72
2020/12/22 06:31:51;;;;;;;43.38;17.60;;;;;;;;;;5075001;28;20048;-73
2020/12/22 06:34:26;;;;;;;40.97;17.95;;;;;;;;;;5074831;28;20555;-72
2020/12/22 06:37:01;;;;;;;44.33;18.25;;;;;;;;;;5058425;28;20502;-73
2020/12/22 06:39:36;;;;;;;40.45;17.17;;;;;;;;;;5075582;28;20023;-74
2020/12/22 06:42:01;;;;;;;41.95;18.33;;;;;;;;;;5085976;28;20023;-72
2020/12/22 06:44:27;;;;;;;44.08;18.33;;;;;;;;;;5073859;28;20365;-72
2020/12/22 06:46:55;;;;;;;47.63;19.90;;;;;;;;;;5037691;28;20023;-72
2020/12/22 06:49:30;;;;;;;42.63;20.30;;;;;;;;;;5074377;28;20069;-74
2020/12/22 06:51:55;;;;;;;52.80;22.92;;;;;;;;;;5074704;28;20288;-73
2020/12/22 06:54:30;;;;;;;49.40;20.73;;;;;;;;;;5076525;28;20016;-71
2020/12/22 06:56:55;;;;;;;48.45;20.90;;;;;;;;;;5053993;28;20028;-72
2020/12/22 06:59:30;;;;;;;51.38;21.98;;;;;;;;;;5073997;28;20413;-71
2020/12/22 07:01:55;;;;;;;44.53;19.63;;;;;;;;;;5084471;28;20867;-69
2020/12/22 07:04:21;;;;;;;46.53;19.25;;;;;;;;;;5077206;28;20028;-70
2020/12/22 07:06:47;;;;;;;44.53;19.63;;;;;;;;;;5082135;28;20038;-70
2020/12/22 07:09:14;;;;;;;40.42;18.70;;;;;;;;;;5081498;28;20107;-71
2020/12/22 07:11:39;;;;;;;44.90;18.88;;;;;;;;;;5082100;28;20453;-72
2020/12/22 07:14:06;;;;;;;42.35;18.50;;;;;;;;;;5076398;28;20103;-70
2020/12/22 07:16:31;;;;;;;44.65;18.23;;;;;;;;;;5081877;28;20020;-70
2020/12/22 07:18:58;;;;;;;42.83;19.02;;;;;;;;;;5062494;28;20013;-70
2020/12/22 07:21:31;;;;;;;51.17;20.77;;;;;;;;;;5080766;28;20028;-71
2020/12/22 07:23:56;;;;;;;42.72;20.05;;;;;;;;;;5083022;28;20016;-71
2020/12/22 07:26:22;;;;;;;46.90;21.10;;;;;;;;;;5087875;28;20031;-70
2020/12/22 07:28:49;;;;;;;43.78;19.40;;;;;;;;;;5053822;28;20104;-71
2020/12/22 07:31:19;;;;;;;50.65;21.52;;;;;;;;;;5071811;28;20044;-71
2020/12/22 07:33:45;;;;;;;36.72;18.50;;;;;;;;;;5070123;28;20648;-71
2020/12/22 07:36:10;;;;;;;46.65;19.75;;;;;;;;;;5071606;28;20032;-72
2020/12/22 07:38:36;;;;;;;44.67;19.17;;;;;;;;;;5076754;28;20530;-70
2020/12/22 07:41:01;;;;;;;39.40;19.25;;;;;;;;;;5066570;28;20030;-69
2020/12/22 07:43:26;;;;;;;50.45;20.30;;;;;;;;;;5082536;28;20022;-72
2020/12/22 07:45:52;;;;;;;43.92;19.55;;;;;;;;;;5072893;28;20016;-72
2020/12/22 07:48:18;;;;;;;42.05;19.73;;;;;;;;;;5061451;28;20024;-76
2020/12/22 07:50:44;;;;;;;39.35;19.25;;;;;;;;;;5045178;28;20070;-73
2020/12/22 07:53:10;;;;;;;45.45;20.27;;;;;;;;;;5045197;28;20021;-70
2020/12/22 07:55:36;;;;;;;44.47;18.58;;;;;;;;;;5079681;28;20477;-75
2020/12/22 07:58:02;;;;;;;43.17;20.05;;;;;;;;;;5083694;28;20469;-72
2020/12/22 08:00:28;;;;;;;40.92;17.38;;;;;;;;;;5058555;28;20056;-69
2020/12/22 08:02:53;;;;;;;41.65;19.55;;;;;;;;;;5075324;28;20496;-72
2020/12/22 08:05:26;;;;;;;41.10;17.75;;;;;;;;;;5054987;28;20115;-78
2020/12/22 08:07:53;;;;;;;43.30;20.40;;;;;;;;;;5053981;28;20020;-75
2020/12/22 08:10:19;;;;;;;46.22;21.85;;;;;;;;;;5067718;28;20584;-78
2020/12/22 08:12:50;;;;;;;50.67;21.38;;;;;;;;;;5094219;28;20087;-78
2020/12/22 08:15:16;;;;;;;47.05;19.10;;;;;;;;;;5097679;28;20024;-77
2020/12/22 08:17:44;;;;;;;55.55;20.00;;;;;;;;;;5096150;28;20011;-74
2020/12/22 08:20:10;;;;;;;48.70;20.17;;;;;;;;;;5083633;28;20020;-71
2020/12/22 08:22:35;;;;;;;43.65;20.17;;;;;;;;;;5058693;28;20025;-77
2020/12/22 08:25:01;;;;;;;40.92;18.83;;;;;;;;;;5060915;28;20020;-70
2020/12/22 08:27:29;;;;;;;44.13;18.38;;;;;;;;;;5075369;28;20019;-71
2020/12/22 08:29:54;;;;;;;38.88;18.92;;;;;;;;;;5079355;28;20023;-74
2020/12/22 08:32:22;;;;;;;33.15;16.88;;;;;;;;;;5048542;28;20041;-74
2020/12/22 08:34:52;;;;;;;47.05;18.98;;;;;;;;;;5061315;28;20099;-77
2020/12/22 08:37:18;;;;;;;39.65;18.40;;;;;;;;;;5061648;28;20465;-76
2020/12/22 08:39:44;;;;;;;50.97;22.17;;;;;;;;;;5064868;28;20023;-72
2020/12/22 08:42:10;;;;;;;49.45;22.95;;;;;;;;;;5065793;28;20028;-70
2020/12/22 08:44:36;;;;;;;45.00;22.42;;;;;;;;;;5060244;28;20021;-71
2020/12/22 08:47:11;;;;;;;46.50;21.95;;;;;;;;;;5058584;28;20496;-75
2020/12/22 08:49:36;;;;;;;39.83;19.10;;;;;;;;;;5061960;28;20017;-76
2020/12/22 08:52:11;;;;;;;39.78;19.30;;;;;;;;;;5054928;28;20036;-73
2020/12/22 08:54:36;;;;;;;42.78;19.63;;;;;;;;;;5065110;28;20021;-75
2020/12/22 08:57:11;;;;;;;37.83;18.65;;;;;;;;;;5071277;28;20069;-74
2020/12/22 08:59:36;;;;;;;41.47;17.80;;;;;;;;;;5073003;28;20020;-76
2020/12/22 09:02:02;;;;;;;39.85;18.83;;;;;;;;;;5073030;28;20027;-75
2020/12/22 09:04:28;;;;;;;41.88;19.65;;;;;;;;;;5075651;28;20021;-75
2020/12/22 09:06:54;;;;;;;39.25;18.95;;;;;;;;;;5075027;28;20093;-72
2020/12/22 09:09:24;;;;;;;46.97;20.90;;;;;;;;;;5074625;28;20020;-72
2020/12/22 09:11:50;;;;;;;51.20;22.83;;;;;;;;;;5068705;28;20044;-72
2020/12/22 09:14:16;;;;;;;45.85;21.45;;;;;;;;;;5060986;28;20115;-72
2020/12/22 09:16:42;;;;;;;54.28;24.52;;;;;;;;;;5073625;28;20046;-75
2020/12/22 09:19:08;;;;;;;42.95;19.15;;;;;;;;;;5074229;28;20023;-73
2020/12/22 09:21:34;;;;;;;45.75;21.73;;;;;;;;;;5074255;28;20016;-74
2020/12/22 09:23:59;;;;;;;52.65;21.17;;;;;;;;;;5073382;28;20027;-74
2020/12/22 09:26:24;;;;;;;43.08;18.55;;;;;;;;;;5073014;28;20087;-73
2020/12/22 09:28:50;;;;;;;40.33;17.50;;;;;;;;;;5066830;28;20012;-70
2020/12/22 09:31:25;;;;;;;40.25;19.58;;;;;;;;;;5070232;28;20105;-71
2020/12/22 09:33:50;;;;;;;41.10;20.52;;;;;;;;;;5079279;28;20024;-73
2020/12/22 09:36:16;;;;;;;40.45;18.15;;;;;;;;;;5088522;28;20061;-69
2020/12/22 09:38:41;;;;;;;41.00;18.42;;;;;;;;;;5073386;28;20016;-73
2020/12/22 09:41:07;;;;;;;42.55;19.80;;;;;;;;;;5054221;28;20019;-75
2020/12/22 09:43:32;;;;;;;47.58;21.10;;;;;;;;;;5064531;28;20024;-75
2020/12/22 09:45:57;;;;;;;39.78;19.92;;;;;;;;;;5091650;28;20053;-74
2020/12/22 09:48:23;;;;;;;48.30;23.92;;;;;;;;;;5075499;28;20077;-72
2020/12/22 09:50:48;;;;;;;42.60;20.15;;;;;;;;;;5077912;28;20090;-74
2020/12/22 09:53:14;;;;;;;46.92;20.48;;;;;;;;;;5086184;28;20383;-75
2020/12/22 09:55:39;;;;;;;42.00;19.65;;;;;;;;;;5080428;28;20033;-72
2020/12/22 09:58:05;;;;;;;41.17;19.45;;;;;;;;;;5084691;28;20048;-74
2020/12/22 10:00:30;;;;;;;46.90;20.15;;;;;;;;;;5086092;28;20358;-73
2020/12/22 10:02:55;;;;;;;45.70;19.52;;;;;;;;;;5079408;28;20028;-74
2020/12/22 10:05:21;;;;;;;46.45;21.00;;;;;;;;;;5060308;28;20020;-72
2020/12/22 10:07:46;;;;;;;43.35;20.30;;;;;;;;;;5061279;28;20499;-74
2020/12/22 10:10:12;;;;;;;50.65;22.92;;;;;;;;;;5093860;28;20553;-73
2020/12/22 10:12:37;;;;;;;50.60;22.98;;;;;;;;;;5041425;28;20025;-72
2020/12/22 10:15:03;;;;;;;46.55;21.40;;;;;;;;;;5085258;28;20453;-73
2020/12/22 10:17:28;;;;;;;44.17;21.58;;;;;;;;;;5060082;28;20365;-75
2020/12/22 10:19:54;;;;;;;45.67;19.92;;;;;;;;;;5083078;28;20013;-73
2020/12/22 10:22:19;;;;;;;44.53;20.55;;;;;;;;;;5055135;28;20062;-73
2020/12/22 10:24:45;;;;;;;42.75;20.45;;;;;;;;;;5058372;28;20028;-73
2020/12/22 10:27:10;;;;;;;45.08;20.90;;;;;;;;;;5079890;28;20024;-72
2020/12/22 10:29:36;;;;;;;47.05;21.60;;;;;;;;;;5081938;28;20102;-70
2020/12/22 10:32:01;;;;;;;50.20;22.48;;;;;;;;;;5081905;28;20044;-72
2020/12/22 10:34:27;;;;;;;50.67;23.35;;;;;;;;;;5064048;28;20063;-72
2020/12/22 10:36:52;;;;;;;51.78;23.73;;;;;;;;;;5062051;28;20023;-73
2020/12/22 10:39:17;;;;;;;51.70;23.52;;;;;;;;;;5062271;28;20046;-71
2020/12/22 10:41:43;;;;;;;58.58;24.30;;;;;;;;;;5070091;28;20031;-73
2020/12/22 10:44:08;;;;;;;61.75;26.42;;;;;;;;;;5080639;28;20546;-73
2020/12/22 10:46:34;;;;;;;57.70;26.77;;;;;;;;;;5083005;28;20020;-72
2020/12/22 10:49:00;;;;;;;57.47;27.23;;;;;;;;;;5064312;28;20392;-72
2020/12/22 10:51:25;;;;;;;58.58;27.15;;;;;;;;;;5065022;28;20028;-72
2020/12/22 10:53:51;;;;;;;56.30;25.65;;;;;;;;;;5079737;28;20388;-72
2020/12/22 10:56:17;;;;;;;55.30;26.45;;;;;;;;;;5081261;28;20515;-72
2020/12/22 10:58:43;;;;;;;55.22;24.98;;;;;;;;;;5077802;28;20031;-72
2020/12/22 11:01:09;;;;;;;54.28;26.83;;;;;;;;;;5053503;28;20481;-72
2020/12/22 11:03:34;;;;;;;57.65;27.38;;;;;;;;;;5062911;28;20028;-72
2020/12/22 11:08:38;;;;;;;55.25;25.88;;;;;;;;;;5079507;28;20468;-73
2020/12/22 11:11:04;;;;;;;51.78;24.33;;;;;;;;;;5075068;28;20032;-72
2020/12/22 11:13:30;;;;;;;54.28;23.90;;;;;;;;;;5065396;28;20024;-71
2020/12/22 11:15:55;;;;;;;59.42;27.38;;;;;;;;;;5054954;28;20127;-73
2020/12/22 11:18:20;;;;;;;71.20;31.83;;;;;;;;;;5063049;28;20021;-71
2020/12/22 11:20:46;;;;;;;69.85;31.75;;;;;;;;;;5067563;28;20115;-73
2020/12/22 11:23:11;;;;;;;63.35;29.88;;;;;;;;;;5053980;28;20020;-72
2020/12/22 11:25:37;;;;;;;67.75;30.20;;;;;;;;;;5042297;28;20021;-73
2020/12/22 11:28:02;;;;;;;58.67;27.55;;;;;;;;;;5084534;28;20016;-72
2020/12/22 11:30:28;;;;;;;53.85;23.73;;;;;;;;;;5057374;28;20048;-73
2020/12/22 11:32:53;;;;;;;60.72;26.45;;;;;;;;;;5054126;28;20048;-72
2020/12/22 11:35:19;;;;;;;56.50;25.30;;;;;;;;;;5037399;28;20026;-72
2020/12/22 11:37:45;;;;;;;57.72;24.45;;;;;;;;;;5089042;28;20031;-73
2020/12/22 11:40:10;;;;;;;58.30;25.83;;;;;;;;;;5074108;28;20024;-74
2020/12/22 11:42:36;;;;;;;68.47;29.13;;;;;;;;;;5081784;28;20024;-73
2020/12/22 11:45:02;;;;;;;53.83;24.08;;;;;;;;;;5046302;28;20031;-74
2020/12/22 11:47:32;;;;;;;48.90;23.58;;;;;;;;;;5069776;28;20033;-73
2020/12/22 11:49:57;;;;;;;51.92;24.95;;;;;;;;;;5075099;28;20022;-72
2020/12/22 11:52:23;;;;;;;49.08;23.25;;;;;;;;;;5096348;28;20079;-73
2020/12/22 11:54:48;;;;;;;57.92;26.55;;;;;;;;;;5096452;28;20047;-74
2020/12/22 11:57:14;;;;;;;53.05;25.65;;;;;;;;;;5078306;28;20097;-74
2020/12/22 11:59:39;;;;;;;55.17;25.70;;;;;;;;;;5071506;28;20122;-72
2020/12/22 12:02:05;;;;;;;57.45;24.17;;;;;;;;;;5091241;28;20016;-70
2020/12/22 12:04:31;;;;;;;51.33;23.95;;;;;;;;;;5077390;28;20020;-73
2020/12/22 12:06:56;;;;;;;58.05;25.02;;;;;;;;;;5077274;28;20016;-74
2020/12/22 12:09:22;;;;;;;53.88;25.95;;;;;;;;;;5057989;28;20035;-73
2020/12/22 12:11:49;;;;;;;56.53;24.23;;;;;;;;;;5059079;28;20036;-74
2020/12/22 12:14:22;;;;;;;49.20;23.02;;;;;;;;;;5059159;28;20013;-75
2020/12/22 12:16:56;;;;;;;54.22;23.23;;;;;;;;;;5079455;28;20127;-73
2020/12/22 12:19:32;;;;;;;49.97;24.52;;;;;;;;;;5084182;28;20043;-75
2020/12/22 12:22:06;;;;;;;47.00;20.73;;;;;;;;;;5086313;28;20084;-73
2020/12/22 12:24:42;;;;;;;51.88;22.23;;;;;;;;;;5081723;28;20070;-74
2020/12/22 12:27:10;;;;;;;57.42;28.92;;;;;;;;;;5061408;28;20036;-73
2020/12/22 12:29:36;;;;;;;54.42;23.90;;;;;;;;;;5084711;28;20024;-74
2020/12/22 12:32:02;;;;;;;52.08;21.95;;;;;;;;;;5075405;28;20094;-75
2020/12/22 12:34:27;;;;;;;54.15;22.98;;;;;;;;;;5074943;28;20373;-73
2020/12/22 12:37:01;;;;;;;57.75;25.20;;;;;;;;;;5076769;28;20021;-73
2020/12/22 12:39:35;;;;;;;60.67;25.95;;;;;;;;;;5049562;28;20028;-72
2020/12/22 12:42:09;;;;;;;57.85;25.30;;;;;;;;;;5075299;28;20025;-74
2020/12/22 12:44:37;;;;;;;55.20;23.92;;;;;;;;;;5075249;28;20107;-73
2020/12/22 12:47:02;;;;;;;56.63;24.13;;;;;;;;;;5074347;28;20099;-76
2020/12/22 12:49:27;;;;;;;58.85;25.98;;;;;;;;;;5074808;28;20025;-72
2020/12/22 12:51:53;;;;;;;52.88;24.67;;;;;;;;;;5074255;28;20039;-73
2020/12/22 12:54:18;;;;;;;64.03;26.35;;;;;;;;;;5056849;28;20012;-74
2020/12/22 12:56:47;;;;;;;56.33;25.70;;;;;;;;;;5074201;28;20016;-74
2020/12/22 12:59:13;;;;;;;57.55;26.02;;;;;;;;;;5056020;28;20035;-74
2020/12/22 13:01:38;;;;;;;50.05;26.55;;;;;;;;;;5074528;28;20025;-72
2020/12/22 13:04:04;;;;;;;55.70;27.50;;;;;;;;;;5073687;28;20016;-71
2020/12/22 13:06:30;;;;;;;53.70;24.38;;;;;;;;;;5056787;28;20077;-75
2020/12/22 13:08:55;;;;;;;57.30;26.63;;;;;;;;;;5077661;28;20028;-70
2020/12/22 13:11:21;;;;;;;62.95;28.42;;;;;;;;;;5069606;28;20031;-69
2020/12/22 13:13:46;;;;;;;54.58;23.90;;;;;;;;;;5076473;28;20020;-68
2020/12/22 13:16:12;;;;;;;50.20;22.85;;;;;;;;;;5057190;28;20028;-72
2020/12/22 13:18:38;;;;;;;64.10;25.20;;;;;;;;;;5074769;28;20107;-72
2020/12/22 13:21:03;;;;;;;54.00;24.35;;;;;;;;;;5056002;28;20434;-73
2020/12/22 13:23:29;;;;;;;59.10;23.83;;;;;;;;;;5056139;28;20031;-72
2020/12/22 13:25:54;;;;;;;52.40;23.38;;;;;;;;;;5076929;28;20031;-72
2020/12/22 13:28:19;;;;;;;54.67;26.02;;;;;;;;;;5069302;28;20028;-70
2020/12/22 13:30:45;;;;;;;60.00;25.67;;;;;;;;;;5083269;28;20052;-72
2020/12/22 13:33:10;;;;;;;52.72;23.77;;;;;;;;;;5060325;28;20396;-73
2020/12/22 13:35:36;;;;;;;55.53;25.25;;;;;;;;;;5070581;28;20024;-72
2020/12/22 13:38:02;;;;;;;52.38;23.15;;;;;;;;;;5080735;28;20021;-73
2020/12/22 13:40:27;;;;;;;58.50;25.23;;;;;;;;;;5073811;28;20100;-73
2020/12/22 13:42:53;;;;;;;52.58;24.50;;;;;;;;;;5056966;28;20024;-72
2020/12/22 13:45:20;;;;;;;55.28;26.27;;;;;;;;;;5059444;28;20398;-71
2020/12/22 13:47:45;;;;;;;56.95;23.73;;;;;;;;;;5081782;28;20039;-68
2020/12/22 13:50:11;;;;;;;55.00;24.75;;;;;;;;;;5059929;28;20016;-75
2020/12/22 13:52:37;;;;;;;64.22;27.33;;;;;;;;;;5066417;28;20021;-78
2020/12/22 13:55:03;;;;;;;59.22;24.55;;;;;;;;;;5082477;28;20473;-75
2020/12/22 13:57:28;;;;;;;56.80;26.00;;;;;;;;;;5054573;28;20020;-73
2020/12/22 13:59:54;;;;;;;58.33;25.00;;;;;;;;;;5061528;28;20366;-72
2020/12/22 14:02:19;;;;;;;65.32;26.73;;;;;;;;;;5047121;28;20227;-71
2020/12/22 14:04:44;;;;;;;56.25;24.48;;;;;;;;;;5059194;28;20032;-75
2020/12/22 14:07:10;;;;;;;54.03;26.42;;;;;;;;;;5073426;28;20029;-70
2020/12/22 14:09:35;;;;;;;49.78;24.52;;;;;;;;;;5054487;28;20495;-72
2020/12/22 14:12:05;;;;;;;56.70;25.42;;;;;;;;;;5072349;28;20079;-71
2020/12/22 14:14:30;;;;;;;;;;;;;;;;;;5074434;28;20528;-71
2020/12/22 14:16:55;;;;;;;63.20;25.58;;;;;;;;;;5072118;28;19999;-72